首页
METAR-TAF:

METAR-TAF

机场 :

阿纳帕, 俄罗斯

纬度: 44-54N, 经度: 037-19E, 海拔: 53米

当前天气观测

该预报发布于28分钟前的20:00 UTC
风速21节,风向
温度 12°C
湿度 28%
气压 1007 hPa
能见度10公里或以上
散云

METAR: URKA 262000Z 17011MPS 9999 SCT/// 12/M06 Q1007 R22/010065 TEMPO 18015G23MPS RMK QFE750/1001

时间: 00:28 (20:28 UTC)

预报

该预报发布于3小时和33分钟前的16:55 UTC
预报有效从26日的 18点(UTC)到 27日的 18点(UTC)
风速23节,风向南转南东,有时为37节阵风
能见度10公里或以上
散云层高于3000英尺
成为
从 27日的 12点(UTC)到 27日的 14点(UTC)
风速14节,风向南转南东,有时为27节阵风

TAF: URKA 261655Z 2618/2718 16012G19MPS 9999 SCT030 BECMG 2712/2714 16007G14MPS

超过4000个机场的气象观测和天气预报(METAR&TAF报告)。

可查询的气象台以黄色和红色小点在地图上表示。

将鼠标移到小点上方,可查看气象台名称。

然后点击查看天气观测和预报。

如需切换地图:点击带黑十字的绿色按钮放大地图;点击带横线的绿色按钮缩小地图;或者点击绿色箭头查看邻近地区的地图。


METAR-TAF: